sensor_id;sensor_type;location;lat;lon;timestamp;temperature;humidity
66740;DHT22;53653;52.188;8.602;2023-05-07T00:00:04;11.72;88.11
66740;DHT22;53653;52.188;8.602;2023-05-07T00:02:34;11.70;88.22
66740;DHT22;53653;52.188;8.602;2023-05-07T00:04:59;11.69;88.12
66740;DHT22;53653;52.188;8.602;2023-05-07T00:07:25;11.65;88.35
66740;DHT22;53653;52.188;8.602;2023-05-07T00:09:50;11.69;88.37
66740;DHT22;53653;52.188;8.602;2023-05-07T00:12:16;11.65;88.37
66740;DHT22;53653;52.188;8.602;2023-05-07T00:14:41;11.65;88.35
66740;DHT22;53653;52.188;8.602;2023-05-07T00:17:07;11.61;88.42
66740;DHT22;53653;52.188;8.602;2023-05-07T00:19:33;11.59;88.41
66740;DHT22;53653;52.188;8.602;2023-05-07T00:21:58;11.56;88.50
66740;DHT22;53653;52.188;8.602;2023-05-07T00:24:24;11.55;88.57
66740;DHT22;53653;52.188;8.602;2023-05-07T00:26:50;11.51;88.63
66740;DHT22;53653;52.188;8.602;2023-05-07T00:29:16;11.53;88.40
66740;DHT22;53653;52.188;8.602;2023-05-07T00:31:41;11.51;88.53
66740;DHT22;53653;52.188;8.602;2023-05-07T00:34:07;11.51;88.54
66740;DHT22;53653;52.188;8.602;2023-05-07T00:36:33;11.52;88.52
66740;DHT22;53653;52.188;8.602;2023-05-07T00:39:00;11.56;88.41
66740;DHT22;53653;52.188;8.602;2023-05-07T00:41:26;11.49;88.41
66740;DHT22;53653;52.188;8.602;2023-05-07T00:43:52;11.45;88.63
66740;DHT22;53653;52.188;8.602;2023-05-07T00:46:20;11.43;88.57
66740;DHT22;53653;52.188;8.602;2023-05-07T00:48:46;11.46;88.51
66740;DHT22;53653;52.188;8.602;2023-05-07T00:51:12;11.46;88.38
66740;DHT22;53653;52.188;8.602;2023-05-07T00:53:38;11.43;88.50
66740;DHT22;53653;52.188;8.602;2023-05-07T00:56:04;11.49;88.40
66740;DHT22;53653;52.188;8.602;2023-05-07T00:58:32;11.49;88.31
66740;DHT22;53653;52.188;8.602;2023-05-07T01:00:59;11.39;88.39
66740;DHT22;53653;52.188;8.602;2023-05-07T01:03:25;11.35;88.59
66740;DHT22;53653;52.188;8.602;2023-05-07T01:05:52;11.36;88.60
66740;DHT22;53653;52.188;8.602;2023-05-07T01:08:18;11.35;88.43
66740;DHT22;53653;52.188;8.602;2023-05-07T01:10:44;11.35;88.51
66740;DHT22;53653;52.188;8.602;2023-05-07T01:13:12;11.34;88.53
66740;DHT22;53653;52.188;8.602;2023-05-07T01:15:38;11.35;88.42
66740;DHT22;53653;52.188;8.602;2023-05-07T01:18:07;11.26;88.70
66740;DHT22;53653;52.188;8.602;2023-05-07T01:20:34;11.36;88.42
66740;DHT22;53653;52.188;8.602;2023-05-07T01:23:01;11.26;88.63
66740;DHT22;53653;52.188;8.602;2023-05-07T01:25:28;11.38;88.51
66740;DHT22;53653;52.188;8.602;2023-05-07T01:27:57;11.31;88.35
66740;DHT22;53653;52.188;8.602;2023-05-07T01:30:29;11.28;88.55
66740;DHT22;53653;52.188;8.602;2023-05-07T01:33:00;11.25;88.53
66740;DHT22;53653;52.188;8.602;2023-05-07T01:35:32;11.31;88.33
66740;DHT22;53653;52.188;8.602;2023-05-07T01:38:00;11.29;88.37
66740;DHT22;53653;52.188;8.602;2023-05-07T01:40:26;11.28;88.21
66740;DHT22;53653;52.188;8.602;2023-05-07T01:42:52;11.25;88.25
66740;DHT22;53653;52.188;8.602;2023-05-07T01:45:19;11.22;88.33
66740;DHT22;53653;52.188;8.602;2023-05-07T01:47:45;11.19;88.47
66740;DHT22;53653;52.188;8.602;2023-05-07T01:50:12;11.22;88.45
66740;DHT22;53653;52.188;8.602;2023-05-07T01:52:38;11.24;88.39
66740;DHT22;53653;52.188;8.602;2023-05-07T01:55:05;11.22;88.40
66740;DHT22;53653;52.188;8.602;2023-05-07T01:57:31;11.17;88.56
66740;DHT22;53653;52.188;8.602;2023-05-07T01:59:57;11.19;88.56
66740;DHT22;53653;52.188;8.602;2023-05-07T02:02:22;11.22;88.52
66740;DHT22;53653;52.188;8.602;2023-05-07T02:04:48;11.12;88.68
66740;DHT22;53653;52.188;8.602;2023-05-07T02:07:15;11.17;88.81
66740;DHT22;53653;52.188;8.602;2023-05-07T02:09:41;11.14;88.77
66740;DHT22;53653;52.188;8.602;2023-05-07T02:12:07;11.17;88.77
66740;DHT22;53653;52.188;8.602;2023-05-07T02:14:33;11.05;88.98
66740;DHT22;53653;52.188;8.602;2023-05-07T02:16:59;11.05;89.02
66740;DHT22;53653;52.188;8.602;2023-05-07T02:19:25;11.07;89.00
66740;DHT22;53653;52.188;8.602;2023-05-07T02:21:51;11.04;88.97
66740;DHT22;53653;52.188;8.602;2023-05-07T02:24:17;11.04;89.00
66740;DHT22;53653;52.188;8.602;2023-05-07T02:26:42;10.98;89.25
66740;DHT22;53653;52.188;8.602;2023-05-07T02:29:08;11.04;88.98
66740;DHT22;53653;52.188;8.602;2023-05-07T02:31:35;10.93;89.31
66740;DHT22;53653;52.188;8.602;2023-05-07T02:34:01;10.88;89.42
66740;DHT22;53653;52.188;8.602;2023-05-07T02:36:27;10.93;89.29
66740;DHT22;53653;52.188;8.602;2023-05-07T02:39:00;10.93;89.37
66740;DHT22;53653;52.188;8.602;2023-05-07T02:41:27;10.85;89.43
66740;DHT22;53653;52.188;8.602;2023-05-07T02:43:53;10.84;89.51
66740;DHT22;53653;52.188;8.602;2023-05-07T02:46:19;10.90;89.45
66740;DHT22;53653;52.188;8.602;2023-05-07T02:48:49;10.83;89.59
66740;DHT22;53653;52.188;8.602;2023-05-07T02:51:19;10.83;89.55
66740;DHT22;53653;52.188;8.602;2023-05-07T02:53:45;10.80;89.69
66740;DHT22;53653;52.188;8.602;2023-05-07T02:56:11;10.83;89.67
66740;DHT22;53653;52.188;8.602;2023-05-07T02:58:37;10.78;89.79
66740;DHT22;53653;52.188;8.602;2023-05-07T03:01:06;10.76;89.90
66740;DHT22;53653;52.188;8.602;2023-05-07T03:03:38;10.68;90.01
66740;DHT22;53653;52.188;8.602;2023-05-07T03:06:05;10.73;89.86
66740;DHT22;53653;52.188;8.602;2023-05-07T03:08:32;10.68;90.03
66740;DHT22;53653;52.188;8.602;2023-05-07T03:10:58;10.73;90.06
66740;DHT22;53653;52.188;8.602;2023-05-07T03:13:24;10.71;90.05
66740;DHT22;53653;52.188;8.602;2023-05-07T03:15:51;10.63;90.22
66740;DHT22;53653;52.188;8.602;2023-05-07T03:18:16;10.61;90.37
66740;DHT22;53653;52.188;8.602;2023-05-07T03:20:42;10.56;90.39
66740;DHT22;53653;52.188;8.602;2023-05-07T03:23:08;10.57;90.58
66740;DHT22;53653;52.188;8.602;2023-05-07T03:25:33;10.57;90.57
66740;DHT22;53653;52.188;8.602;2023-05-07T03:27:59;10.57;90.54
66740;DHT22;53653;52.188;8.602;2023-05-07T03:30:33;10.53;90.62
66740;DHT22;53653;52.188;8.602;2023-05-07T03:32:59;10.57;90.60
66740;DHT22;53653;52.188;8.602;2023-05-07T03:35:25;10.53;90.48
66740;DHT22;53653;52.188;8.602;2023-05-07T03:37:51;10.53;90.61
66740;DHT22;53653;52.188;8.602;2023-05-07T03:40:18;10.53;90.71
66740;DHT22;53653;52.188;8.602;2023-05-07T03:42:47;10.57;90.71
66740;DHT22;53653;52.188;8.602;2023-05-07T03:45:14;10.57;90.63
66740;DHT22;53653;52.188;8.602;2023-05-07T03:47:45;10.59;90.61
66740;DHT22;53653;52.188;8.602;2023-05-07T03:50:15;10.55;90.70
66740;DHT22;53653;52.188;8.602;2023-05-07T03:52:40;10.53;90.78
66740;DHT22;53653;52.188;8.602;2023-05-07T03:55:08;10.50;90.85
66740;DHT22;53653;52.188;8.602;2023-05-07T03:57:35;10.50;90.98
66740;DHT22;53653;52.188;8.602;2023-05-07T04:00:01;10.46;91.07
66740;DHT22;53653;52.188;8.602;2023-05-07T04:02:33;10.49;90.99
66740;DHT22;53653;52.188;8.602;2023-05-07T04:04:58;10.49;91.04
66740;DHT22;53653;52.188;8.602;2023-05-07T04:07:24;10.45;91.11
66740;DHT22;53653;52.188;8.602;2023-05-07T04:09:50;10.46;91.03
66740;DHT22;53653;52.188;8.602;2023-05-07T04:12:16;10.43;91.43
66740;DHT22;53653;52.188;8.602;2023-05-07T04:14:41;10.52;91.23
66740;DHT22;53653;52.188;8.602;2023-05-07T04:17:07;10.53;91.22
66740;DHT22;53653;52.188;8.602;2023-05-07T04:19:37;10.50;91.04
66740;DHT22;53653;52.188;8.602;2023-05-07T04:22:03;10.53;91.25
66740;DHT22;53653;52.188;8.602;2023-05-07T04:24:31;10.52;91.15
66740;DHT22;53653;52.188;8.602;2023-05-07T04:26:57;10.50;91.17
66740;DHT22;53653;52.188;8.602;2023-05-07T04:29:24;10.56;91.05
66740;DHT22;53653;52.188;8.602;2023-05-07T04:31:50;10.60;91.04
66740;DHT22;53653;52.188;8.602;2023-05-07T04:34:15;10.59;90.96
66740;DHT22;53653;52.188;8.602;2023-05-07T04:36:41;10.60;91.04
66740;DHT22;53653;52.188;8.602;2023-05-07T04:39:10;10.60;91.03
66740;DHT22;53653;52.188;8.602;2023-05-07T04:41:37;10.63;91.07
66740;DHT22;53653;52.188;8.602;2023-05-07T04:44:04;10.59;91.01
66740;DHT22;53653;52.188;8.602;2023-05-07T04:46:31;10.59;91.12
66740;DHT22;53653;52.188;8.602;2023-05-07T04:48:57;10.61;91.07
66740;DHT22;53653;52.188;8.602;2023-05-07T04:51:23;10.59;91.05
66740;DHT22;53653;52.188;8.602;2023-05-07T04:53:48;10.57;91.05
66740;DHT22;53653;52.188;8.602;2023-05-07T04:56:15;10.64;91.02
66740;DHT22;53653;52.188;8.602;2023-05-07T04:58:43;10.66;90.91
66740;DHT22;53653;52.188;8.602;2023-05-07T05:01:09;10.64;91.03
66740;DHT22;53653;52.188;8.602;2023-05-07T05:03:36;10.61;91.04
66740;DHT22;53653;52.188;8.602;2023-05-07T05:06:02;10.70;90.93
66740;DHT22;53653;52.188;8.602;2023-05-07T05:08:31;10.68;90.80
66740;DHT22;53653;52.188;8.602;2023-05-07T05:10:58;10.64;90.93
66740;DHT22;53653;52.188;8.602;2023-05-07T05:13:24;10.67;90.89
66740;DHT22;53653;52.188;8.602;2023-05-07T05:15:50;10.71;90.84
66740;DHT22;53653;52.188;8.602;2023-05-07T05:18:16;10.74;90.67
66740;DHT22;53653;52.188;8.602;2023-05-07T05:20:42;10.70;90.66
66740;DHT22;53653;52.188;8.602;2023-05-07T05:23:08;10.71;90.62
66740;DHT22;53653;52.188;8.602;2023-05-07T05:25:33;10.76;90.56
66740;DHT22;53653;52.188;8.602;2023-05-07T05:28:00;10.76;90.47
66740;DHT22;53653;52.188;8.602;2023-05-07T05:30:27;10.68;90.62
66740;DHT22;53653;52.188;8.602;2023-05-07T05:32:52;10.76;90.48
66740;DHT22;53653;52.188;8.602;2023-05-07T05:35:18;10.85;90.20
66740;DHT22;53653;52.188;8.602;2023-05-07T05:37:44;10.73;90.46
66740;DHT22;53653;52.188;8.602;2023-05-07T05:40:11;10.74;90.32
66740;DHT22;53653;52.188;8.602;2023-05-07T05:42:36;10.77;90.23
66740;DHT22;53653;52.188;8.602;2023-05-07T05:45:03;10.87;90.00
66740;DHT22;53653;52.188;8.602;2023-05-07T05:47:31;10.80;90.22
66740;DHT22;53653;52.188;8.602;2023-05-07T05:49:57;10.83;89.85
66740;DHT22;53653;52.188;8.602;2023-05-07T05:52:22;10.98;89.61
66740;DHT22;53653;52.188;8.602;2023-05-07T05:54:51;11.05;89.22
66740;DHT22;53653;52.188;8.602;2023-05-07T05:57:17;11.00;89.11
66740;DHT22;53653;52.188;8.602;2023-05-07T05:59:44;11.01;88.98
66740;DHT22;53653;52.188;8.602;2023-05-07T06:02:10;11.03;88.83
66740;DHT22;53653;52.188;8.602;2023-05-07T06:04:35;11.11;89.07
66740;DHT22;53653;52.188;8.602;2023-05-07T06:07:02;11.08;88.52
66740;DHT22;53653;52.188;8.602;2023-05-07T06:09:28;11.04;88.87
66740;DHT22;53653;52.188;8.602;2023-05-07T06:11:54;11.12;88.50
66740;DHT22;53653;52.188;8.602;2023-05-07T06:14:19;11.15;88.23
66740;DHT22;53653;52.188;8.602;2023-05-07T06:16:45;11.19;88.09
66740;DHT22;53653;52.188;8.602;2023-05-07T06:19:11;11.17;88.36
66740;DHT22;53653;52.188;8.602;2023-05-07T06:21:39;11.31;87.86
66740;DHT22;53653;52.188;8.602;2023-05-07T06:24:04;11.47;87.60
66740;DHT22;53653;52.188;8.602;2023-05-07T06:26:30;11.18;88.17
66740;DHT22;53653;52.188;8.602;2023-05-07T06:28:56;11.35;87.94
66740;DHT22;53653;52.188;8.602;2023-05-07T06:31:23;11.35;87.45
66740;DHT22;53653;52.188;8.602;2023-05-07T06:33:56;11.32;87.60
66740;DHT22;53653;52.188;8.602;2023-05-07T06:36:24;11.43;87.43
66740;DHT22;53653;52.188;8.602;2023-05-07T06:38:54;11.47;87.28
66740;DHT22;53653;52.188;8.602;2023-05-07T06:41:20;11.51;86.77
66740;DHT22;53653;52.188;8.602;2023-05-07T06:43:46;11.40;87.48
66740;DHT22;53653;52.188;8.602;2023-05-07T06:46:24;11.49;87.19
66740;DHT22;53653;52.188;8.602;2023-05-07T06:48:50;11.49;87.13
66740;DHT22;53653;52.188;8.602;2023-05-07T06:51:16;11.52;87.18
66740;DHT22;53653;52.188;8.602;2023-05-07T06:53:42;11.58;87.01
66740;DHT22;53653;52.188;8.602;2023-05-07T06:56:10;11.39;87.11
66740;DHT22;53653;52.188;8.602;2023-05-07T06:58:37;11.42;87.16
66740;DHT22;53653;52.188;8.602;2023-05-07T07:01:03;11.31;87.09
66740;DHT22;53653;52.188;8.602;2023-05-07T07:03:30;11.31;87.47
66740;DHT22;53653;52.188;8.602;2023-05-07T07:05:56;11.38;87.36
66740;DHT22;53653;52.188;8.602;2023-05-07T07:08:22;11.43;87.28
66740;DHT22;53653;52.188;8.602;2023-05-07T07:10:49;11.49;86.75
66740;DHT22;53653;52.188;8.602;2023-05-07T07:13:14;11.66;86.68
66740;DHT22;53653;52.188;8.602;2023-05-07T07:15:40;11.65;86.25
66740;DHT22;53653;52.188;8.602;2023-05-07T07:18:06;11.84;85.98
66740;DHT22;53653;52.188;8.602;2023-05-07T07:20:32;11.76;85.89
66740;DHT22;53653;52.188;8.602;2023-05-07T07:22:58;11.75;86.27
66740;DHT22;53653;52.188;8.602;2023-05-07T07:25:25;11.77;86.12
66740;DHT22;53653;52.188;8.602;2023-05-07T07:27:51;12.00;85.77
66740;DHT22;53653;52.188;8.602;2023-05-07T07:30:17;11.98;85.34
66740;DHT22;53653;52.188;8.602;2023-05-07T07:32:46;12.04;84.92
66740;DHT22;53653;52.188;8.602;2023-05-07T07:35:11;12.16;84.72
66740;DHT22;53653;52.188;8.602;2023-05-07T07:37:38;12.14;84.88
66740;DHT22;53653;52.188;8.602;2023-05-07T07:40:04;12.23;84.99
66740;DHT22;53653;52.188;8.602;2023-05-07T07:42:32;12.10;84.94
66740;DHT22;53653;52.188;8.602;2023-05-07T07:44:57;12.31;84.40
66740;DHT22;53653;52.188;8.602;2023-05-07T07:47:27;12.21;84.67
66740;DHT22;53653;52.188;8.602;2023-05-07T07:49:52;12.24;84.37
66740;DHT22;53653;52.188;8.602;2023-05-07T07:52:19;12.42;84.11
66740;DHT22;53653;52.188;8.602;2023-05-07T07:54:45;12.56;83.72
66740;DHT22;53653;52.188;8.602;2023-05-07T07:57:11;12.48;83.64
66740;DHT22;53653;52.188;8.602;2023-05-07T07:59:36;12.55;83.88
66740;DHT22;53653;52.188;8.602;2023-05-07T08:02:03;12.52;83.98
66740;DHT22;53653;52.188;8.602;2023-05-07T08:04:29;12.65;83.53
66740;DHT22;53653;52.188;8.602;2023-05-07T08:07:00;12.83;83.07
66740;DHT22;53653;52.188;8.602;2023-05-07T08:09:25;12.99;82.10
66740;DHT22;53653;52.188;8.602;2023-05-07T08:11:53;13.11;81.95
66740;DHT22;53653;52.188;8.602;2023-05-07T08:14:18;12.97;82.09
66740;DHT22;53653;52.188;8.602;2023-05-07T08:16:46;13.26;81.70
66740;DHT22;53653;52.188;8.602;2023-05-07T08:19:12;13.36;80.77
66740;DHT22;53653;52.188;8.602;2023-05-07T08:21:39;13.47;80.29
66740;DHT22;53653;52.188;8.602;2023-05-07T08:24:05;13.58;80.17
66740;DHT22;53653;52.188;8.602;2023-05-07T08:26:31;13.36;80.92
66740;DHT22;53653;52.188;8.602;2023-05-07T08:28:57;13.40;80.43
66740;DHT22;53653;52.188;8.602;2023-05-07T08:31:23;13.40;80.33
66740;DHT22;53653;52.188;8.602;2023-05-07T08:33:49;13.44;80.47
66740;DHT22;53653;52.188;8.602;2023-05-07T08:36:15;13.51;79.71
66740;DHT22;53653;52.188;8.602;2023-05-07T08:38:41;13.69;79.82
66740;DHT22;53653;52.188;8.602;2023-05-07T08:41:10;13.95;78.66
66740;DHT22;53653;52.188;8.602;2023-05-07T08:43:41;14.15;78.03
66740;DHT22;53653;52.188;8.602;2023-05-07T08:46:09;14.13;77.69
66740;DHT22;53653;52.188;8.602;2023-05-07T08:48:38;14.19;77.66
66740;DHT22;53653;52.188;8.602;2023-05-07T08:51:12;14.27;77.50
66740;DHT22;53653;52.188;8.602;2023-05-07T08:53:40;14.26;77.13
66740;DHT22;53653;52.188;8.602;2023-05-07T08:56:08;14.20;76.88
66740;DHT22;53653;52.188;8.602;2023-05-07T08:58:35;14.02;78.01
66740;DHT22;53653;52.188;8.602;2023-05-07T09:01:08;13.94;77.51
66740;DHT22;53653;52.188;8.602;2023-05-07T09:03:37;14.32;77.27
66740;DHT22;53653;52.188;8.602;2023-05-07T09:06:04;14.40;76.37
66740;DHT22;53653;52.188;8.602;2023-05-07T09:08:32;14.38;76.55
66740;DHT22;53653;52.188;8.602;2023-05-07T09:11:01;14.32;75.99
66740;DHT22;53653;52.188;8.602;2023-05-07T09:13:28;14.60;75.09
66740;DHT22;53653;52.188;8.602;2023-05-07T09:15:54;14.78;75.61
66740;DHT22;53653;52.188;8.602;2023-05-07T09:18:20;14.87;74.81
66740;DHT22;53653;52.188;8.602;2023-05-07T09:20:47;14.88;74.10
66740;DHT22;53653;52.188;8.602;2023-05-07T09:23:14;14.95;74.70
66740;DHT22;53653;52.188;8.602;2023-05-07T09:25:39;15.05;74.28
66740;DHT22;53653;52.188;8.602;2023-05-07T09:28:13;15.06;73.83
66740;DHT22;53653;52.188;8.602;2023-05-07T09:30:38;15.16;73.86
66740;DHT22;53653;52.188;8.602;2023-05-07T09:33:07;14.80;74.00
66740;DHT22;53653;52.188;8.602;2023-05-07T09:35:37;14.80;74.74
66740;DHT22;53653;52.188;8.602;2023-05-07T09:38:07;15.25;73.97
66740;DHT22;53653;52.188;8.602;2023-05-07T09:40:35;15.09;73.66
66740;DHT22;53653;52.188;8.602;2023-05-07T09:43:13;15.57;72.92
66740;DHT22;53653;52.188;8.602;2023-05-07T09:45:52;15.74;71.95
66740;DHT22;53653;52.188;8.602;2023-05-07T09:48:21;15.59;72.09
66740;DHT22;53653;52.188;8.602;2023-05-07T09:50:51;15.66;73.18
66740;DHT22;53653;52.188;8.602;2023-05-07T09:53:22;15.62;71.72
66740;DHT22;53653;52.188;8.602;2023-05-07T09:55:48;15.71;71.88
66740;DHT22;53653;52.188;8.602;2023-05-07T09:58:16;15.77;70.76
66740;DHT22;53653;52.188;8.602;2023-05-07T10:00:45;15.77;72.27
66740;DHT22;53653;52.188;8.602;2023-05-07T10:03:14;15.73;71.47
66740;DHT22;53653;52.188;8.602;2023-05-07T10:05:58;15.69;72.20
66740;DHT22;53653;52.188;8.602;2023-05-07T10:08:24;15.80;71.54
66740;DHT22;53653;52.188;8.602;2023-05-07T10:10:53;16.38;70.76
66740;DHT22;53653;52.188;8.602;2023-05-07T10:13:24;16.53;69.85
66740;DHT22;53653;52.188;8.602;2023-05-07T10:15:55;15.64;72.76
66740;DHT22;53653;52.188;8.602;2023-05-07T10:18:23;16.10;72.23
66740;DHT22;53653;52.188;8.602;2023-05-07T10:20:52;15.79;72.02
66740;DHT22;53653;52.188;8.602;2023-05-07T10:23:23;15.98;72.01
66740;DHT22;53653;52.188;8.602;2023-05-07T10:25:54;15.98;72.57
66740;DHT22;53653;52.188;8.602;2023-05-07T10:28:23;15.79;72.77
66740;DHT22;53653;52.188;8.602;2023-05-07T10:31:16;15.77;72.32
66740;DHT22;53653;52.188;8.602;2023-05-07T10:33:47;15.54;73.00
66740;DHT22;53653;52.188;8.602;2023-05-07T10:36:15;15.62;74.05
66740;DHT22;53653;52.188;8.602;2023-05-07T10:38:41;15.47;73.39
66740;DHT22;53653;52.188;8.602;2023-05-07T10:41:07;16.00;72.23
66740;DHT22;53653;52.188;8.602;2023-05-07T10:43:40;16.25;70.59
66740;DHT22;53653;52.188;8.602;2023-05-07T10:46:14;16.05;71.86
66740;DHT22;53653;52.188;8.602;2023-05-07T10:51:42;15.97;71.63
66740;DHT22;53653;52.188;8.602;2023-05-07T10:54:20;16.26;70.60
66740;DHT22;53653;52.188;8.602;2023-05-07T10:56:55;16.36;71.29
66740;DHT22;53653;52.188;8.602;2023-05-07T10:59:32;16.05;71.75
66740;DHT22;53653;52.188;8.602;2023-05-07T11:02:13;16.44;71.12
66740;DHT22;53653;52.188;8.602;2023-05-07T11:07:55;16.18;71.20
66740;DHT22;53653;52.188;8.602;2023-05-07T11:10:22;15.98;72.89
66740;DHT22;53653;52.188;8.602;2023-05-07T11:12:56;16.08;72.65
66740;DHT22;53653;52.188;8.602;2023-05-07T11:15:39;15.81;73.09
66740;DHT22;53653;52.188;8.602;2023-05-07T11:18:14;16.05;71.62
66740;DHT22;53653;52.188;8.602;2023-05-07T11:20:53;16.17;71.13
66740;DHT22;53653;52.188;8.602;2023-05-07T11:26:24;16.51;70.77
66740;DHT22;53653;52.188;8.602;2023-05-07T11:28:51;16.69;70.39
66740;DHT22;53653;52.188;8.602;2023-05-07T11:31:23;16.05;71.37
66740;DHT22;53653;52.188;8.602;2023-05-07T11:33:52;16.15;71.68
66740;DHT22;53653;52.188;8.602;2023-05-07T11:36:21;16.49;71.40
66740;DHT22;53653;52.188;8.602;2023-05-07T11:38:49;16.63;70.91
66740;DHT22;53653;52.188;8.602;2023-05-07T11:41:16;16.44;71.03
66740;DHT22;53653;52.188;8.602;2023-05-07T11:43:59;16.52;70.94
66740;DHT22;53653;52.188;8.602;2023-05-07T11:46:25;16.26;71.50
66740;DHT22;53653;52.188;8.602;2023-05-07T11:48:51;16.41;71.57
66740;DHT22;53653;52.188;8.602;2023-05-07T11:51:22;16.87;70.52
66740;DHT22;53653;52.188;8.602;2023-05-07T11:53:48;16.56;70.78
66740;DHT22;53653;52.188;8.602;2023-05-07T11:56:15;16.49;71.45
66740;DHT22;53653;52.188;8.602;2023-05-07T11:58:42;16.75;70.29
66740;DHT22;53653;52.188;8.602;2023-05-07T12:01:09;16.20;72.25
66740;DHT22;53653;52.188;8.602;2023-05-07T12:03:36;16.49;71.73
66740;DHT22;53653;52.188;8.602;2023-05-07T12:06:05;16.38;71.60
66740;DHT22;53653;52.188;8.602;2023-05-07T12:08:31;16.47;71.23
66740;DHT22;53653;52.188;8.602;2023-05-07T12:10:56;16.28;71.64
66740;DHT22;53653;52.188;8.602;2023-05-07T12:13:24;16.38;71.09
66740;DHT22;53653;52.188;8.602;2023-05-07T12:15:54;16.38;71.63
66740;DHT22;53653;52.188;8.602;2023-05-07T12:18:21;16.42;71.41
66740;DHT22;53653;52.188;8.602;2023-05-07T12:20:47;16.52;71.41
66740;DHT22;53653;52.188;8.602;2023-05-07T12:23:13;16.33;71.11
66740;DHT22;53653;52.188;8.602;2023-05-07T12:25:40;16.15;71.89
66740;DHT22;53653;52.188;8.602;2023-05-07T12:28:16;16.51;70.71
66740;DHT22;53653;52.188;8.602;2023-05-07T12:30:44;16.24;71.39
66740;DHT22;53653;52.188;8.602;2023-05-07T12:33:10;16.53;70.86
66740;DHT22;53653;52.188;8.602;2023-05-07T12:35:40;16.62;70.36
66740;DHT22;53653;52.188;8.602;2023-05-07T12:38:11;16.80;70.04
66740;DHT22;53653;52.188;8.602;2023-05-07T12:40:41;16.97;69.11
66740;DHT22;53653;52.188;8.602;2023-05-07T12:43:07;17.28;68.92
66740;DHT22;53653;52.188;8.602;2023-05-07T12:45:38;16.89;69.47
66740;DHT22;53653;52.188;8.602;2023-05-07T12:48:04;16.56;70.76
66740;DHT22;53653;52.188;8.602;2023-05-07T12:50:32;16.59;70.60
66740;DHT22;53653;52.188;8.602;2023-05-07T12:52:58;16.31;70.85
66740;DHT22;53653;52.188;8.602;2023-05-07T12:55:24;16.36;70.91
66740;DHT22;53653;52.188;8.602;2023-05-07T12:57:51;16.33;71.09
66740;DHT22;53653;52.188;8.602;2023-05-07T13:00:41;16.48;70.35
66740;DHT22;53653;52.188;8.602;2023-05-07T13:03:09;16.38;70.89
66740;DHT22;53653;52.188;8.602;2023-05-07T13:05:35;16.29;70.79
66740;DHT22;53653;52.188;8.602;2023-05-07T13:08:01;16.15;71.07
66740;DHT22;53653;52.188;8.602;2023-05-07T13:10:27;16.36;71.01
66740;DHT22;53653;52.188;8.602;2023-05-07T13:12:53;16.59;70.36
66740;DHT22;53653;52.188;8.602;2023-05-07T13:15:19;16.66;70.05
66740;DHT22;53653;52.188;8.602;2023-05-07T13:17:45;16.80;69.47
66740;DHT22;53653;52.188;8.602;2023-05-07T13:20:11;16.70;70.28
66740;DHT22;53653;52.188;8.602;2023-05-07T13:22:40;17.02;69.44
66740;DHT22;53653;52.188;8.602;2023-05-07T13:25:07;16.69;69.81
66740;DHT22;53653;52.188;8.602;2023-05-07T13:27:33;16.63;69.93
66740;DHT22;53653;52.188;8.602;2023-05-07T13:30:05;16.87;69.49
66740;DHT22;53653;52.188;8.602;2023-05-07T13:32:32;16.42;70.54
66740;DHT22;53653;52.188;8.602;2023-05-07T13:34:57;16.52;70.06
66740;DHT22;53653;52.188;8.602;2023-05-07T13:37:23;16.60;69.92
66740;DHT22;53653;52.188;8.602;2023-05-07T13:39:49;16.96;69.41
66740;DHT22;53653;52.188;8.602;2023-05-07T13:42:14;17.34;69.07
66740;DHT22;53653;52.188;8.602;2023-05-07T13:44:40;17.16;68.69
66740;DHT22;53653;52.188;8.602;2023-05-07T13:47:07;16.94;68.96
66740;DHT22;53653;52.188;8.602;2023-05-07T13:49:33;17.32;68.71
66740;DHT22;53653;52.188;8.602;2023-05-07T13:51:58;16.79;68.97
66740;DHT22;53653;52.188;8.602;2023-05-07T13:54:24;17.38;68.46
66740;DHT22;53653;52.188;8.602;2023-05-07T13:56:50;17.89;66.47
66740;DHT22;53653;52.188;8.602;2023-05-07T13:59:16;18.17;66.37
66740;DHT22;53653;52.188;8.602;2023-05-07T14:01:42;17.56;67.29
66740;DHT22;53653;52.188;8.602;2023-05-07T14:04:07;17.34;67.78
66740;DHT22;53653;52.188;8.602;2023-05-07T14:06:33;17.85;66.73
66740;DHT22;53653;52.188;8.602;2023-05-07T14:08:59;17.59;67.69
66740;DHT22;53653;52.188;8.602;2023-05-07T14:11:25;17.69;66.75
66740;DHT22;53653;52.188;8.602;2023-05-07T14:13:51;17.83;67.09
66740;DHT22;53653;52.188;8.602;2023-05-07T14:16:17;17.81;66.94
66740;DHT22;53653;52.188;8.602;2023-05-07T14:18:43;17.64;66.61
66740;DHT22;53653;52.188;8.602;2023-05-07T14:21:08;17.54;67.98
66740;DHT22;53653;52.188;8.602;2023-05-07T14:23:37;17.72;67.24
66740;DHT22;53653;52.188;8.602;2023-05-07T14:26:03;17.85;65.97
66740;DHT22;53653;52.188;8.602;2023-05-07T14:28:29;17.61;67.21
66740;DHT22;53653;52.188;8.602;2023-05-07T14:30:54;17.68;68.00
66740;DHT22;53653;52.188;8.602;2023-05-07T14:33:20;17.81;67.25
66740;DHT22;53653;52.188;8.602;2023-05-07T14:35:46;18.26;66.55
66740;DHT22;53653;52.188;8.602;2023-05-07T14:38:14;17.74;67.38
66740;DHT22;53653;52.188;8.602;2023-05-07T14:40:40;17.90;66.63
66740;DHT22;53653;52.188;8.602;2023-05-07T14:43:06;17.69;66.66
66740;DHT22;53653;52.188;8.602;2023-05-07T14:45:32;17.65;67.23
66740;DHT22;53653;52.188;8.602;2023-05-07T14:47:57;17.85;67.00
66740;DHT22;53653;52.188;8.602;2023-05-07T14:50:23;17.72;66.52
66740;DHT22;53653;52.188;8.602;2023-05-07T14:52:49;17.65;66.76
66740;DHT22;53653;52.188;8.602;2023-05-07T14:55:15;17.86;67.06
66740;DHT22;53653;52.188;8.602;2023-05-07T14:57:41;17.86;65.91
66740;DHT22;53653;52.188;8.602;2023-05-07T15:00:07;17.79;65.80
66740;DHT22;53653;52.188;8.602;2023-05-07T15:02:34;17.59;66.33
66740;DHT22;53653;52.188;8.602;2023-05-07T15:04:59;17.65;66.75
66740;DHT22;53653;52.188;8.602;2023-05-07T15:07:25;17.72;66.97
66740;DHT22;53653;52.188;8.602;2023-05-07T15:09:51;17.76;66.08
66740;DHT22;53653;52.188;8.602;2023-05-07T15:12:17;17.75;66.64
66740;DHT22;53653;52.188;8.602;2023-05-07T15:14:42;17.35;66.93
66740;DHT22;53653;52.188;8.602;2023-05-07T15:17:08;17.41;67.24
66740;DHT22;53653;52.188;8.602;2023-05-07T15:19:34;17.31;67.21
66740;DHT22;53653;52.188;8.602;2023-05-07T15:22:00;17.27;67.84
66740;DHT22;53653;52.188;8.602;2023-05-07T15:24:29;17.41;67.37
66740;DHT22;53653;52.188;8.602;2023-05-07T15:26:55;17.35;66.78
66740;DHT22;53653;52.188;8.602;2023-05-07T15:29:21;17.31;67.39
66740;DHT22;53653;52.188;8.602;2023-05-07T15:31:46;17.28;67.79
66740;DHT22;53653;52.188;8.602;2023-05-07T15:34:12;17.34;67.51
66740;DHT22;53653;52.188;8.602;2023-05-07T15:36:40;17.42;67.53
66740;DHT22;53653;52.188;8.602;2023-05-07T15:39:06;17.37;67.48